Time;durP1;ratioP1;P1;durP2;ratioP2;P2;SDS_P1;SDS_P2;PMS_P1;PMS_P2;Temp;Humidity;BMP_temperature;BMP_pressure;BME280_temperature;BME280_humidity;BME280_pressure;Samples;Min_cycle;Max_cycle;Signal;HPM_P1;HPM_P2
2022/07/29 00:00:38;;;;;;;1.93;1.20;;;14.30;99.90;;;;;;6101450;23;20211;-89
2022/07/29 00:03:03;;;;;;;1.07;0.90;;;14.30;99.90;;;;;;6077672;23;20184;-89
2022/07/29 00:05:29;;;;;;;2.40;1.03;;;14.40;99.90;;;;;;6077662;23;20539;-89
2022/07/29 00:07:55;;;;;;;1.40;1.10;;;14.40;99.90;;;;;;6101134;23;20199;-89
2022/07/29 00:10:21;;;;;;;4.00;1.00;;;14.40;99.90;;;;;;6076715;23;20196;-89
2022/07/29 00:12:46;;;;;;;1.30;1.00;;;14.40;99.90;;;;;;6125541;23;20199;-90
2022/07/29 00:15:13;;;;;;;1.93;1.40;;;14.50;99.90;;;;;;6076813;23;20168;-89
2022/07/29 00:17:39;;;;;;;1.80;1.20;;;14.50;99.90;;;;;;6125942;23;20152;-90
2022/07/29 00:20:05;;;;;;;1.13;1.00;;;14.40;99.90;;;;;;6125102;23;20250;-89
2022/07/29 00:22:31;;;;;;;1.07;0.87;;;14.40;99.90;;;;;;6101164;23;20196;-89
2022/07/29 00:24:57;;;;;;;1.03;1.00;;;14.50;99.90;;;;;;6125015;23;20199;-89
2022/07/29 00:27:23;;;;;;;1.07;0.97;;;14.50;99.90;;;;;;6076844;23;23083;-89
2022/07/29 00:29:49;;;;;;;1.53;1.10;;;14.50;99.90;;;;;;6077373;23;20156;-89
2022/07/29 00:32:14;;;;;;;1.97;0.73;;;14.50;99.90;;;;;;6100526;23;20200;-89
2022/07/29 00:37:25;;;;;;;0.90;0.80;;;14.50;99.90;;;;;;6125258;23;20218;-90
2022/07/29 00:39:51;;;;;;;0.93;0.67;;;14.50;99.90;;;;;;6100853;23;20199;-89
2022/07/29 00:42:16;;;;;;;1.67;1.03;;;14.50;99.90;;;;;;6124417;23;20246;-90
2022/07/29 00:44:43;;;;;;;3.23;1.10;;;14.60;99.90;;;;;;6077565;23;20148;-90
2022/07/29 00:47:10;;;;;;;0.80;0.80;;;14.60;99.90;;;;;;6124742;23;20200;-89
2022/07/29 00:49:38;;;;;;;2.70;1.30;;;14.60;99.90;;;;;;6100632;23;20196;-89
2022/07/29 00:52:05;;;;;;;1.30;1.20;;;14.60;99.90;;;;;;6125306;23;20649;-90
2022/07/29 00:54:32;;;;;;;1.80;0.90;;;14.70;99.90;;;;;;6100748;23;20659;-90
2022/07/29 00:57:01;;;;;;;1.90;1.57;;;14.80;99.90;;;;;;6101455;23;20183;-90
2022/07/29 00:59:27;;;;;;;1.90;1.00;;;14.80;99.90;;;;;;6126276;23;20711;-90
2022/07/29 01:01:54;;;;;;;1.53;1.13;;;14.90;99.90;;;;;;6100752;23;20526;-89
2022/07/29 01:04:21;;;;;;;2.60;1.33;;;14.90;99.90;;;;;;6100298;23;20589;-89
2022/07/29 01:06:50;;;;;;;1.80;0.90;;;15.00;99.90;;;;;;6126156;23;20270;-90
2022/07/29 01:09:18;;;;;;;3.03;1.63;;;15.00;99.90;;;;;;6124863;23;20471;-89
2022/07/29 01:11:45;;;;;;;5.13;1.67;;;15.10;99.90;;;;;;6101421;23;20157;-89
2022/07/29 01:14:12;;;;;;;0.90;0.90;;;15.10;99.90;;;;;;6100349;23;20202;-90
2022/07/29 01:16:45;;;;;;;2.23;1.43;;;15.10;99.90;;;;;;6124744;23;20287;-90
2022/07/29 01:19:49;;;;;;;1.30;0.90;;;15.10;99.90;;;;;;6124765;23;20196;-90
2022/07/29 01:23:06;;;;;;;1.50;1.40;;;15.10;99.90;;;;;;6126086;23;20215;-88
2022/07/29 01:25:54;;;;;;;1.33;1.20;;;15.10;99.90;;;;;;6064424;23;20196;-88
2022/07/29 01:28:19;;;;;;;3.87;1.20;;;15.10;99.90;;;;;;6124762;23;20216;-88
2022/07/29 01:30:47;;;;;;;1.70;1.10;;;15.20;99.90;;;;;;6124811;23;20189;-88
2022/07/29 01:36:08;;;;;;;1.13;0.97;;;15.20;99.90;;;;;;6127291;23;20631;-88
2022/07/29 01:38:35;;;;;;;1.23;1.10;;;15.30;99.90;;;;;;6125531;23;20191;-88
2022/07/29 01:41:14;;;;;;;2.37;1.73;;;15.30;99.90;;;;;;6125338;23;20219;-88
2022/07/29 01:44:11;;;;;;;1.83;1.10;;;15.30;99.90;;;;;;6126746;23;20238;-88
2022/07/29 01:46:41;;;;;;;0.70;0.70;;;15.40;99.90;;;;;;6126824;23;20229;-90
2022/07/29 01:49:25;;;;;;;1.57;0.80;;;15.40;99.90;;;;;;6126426;23;20196;-91
2022/07/29 01:52:06;;;;;;;1.30;1.20;;;15.40;99.90;;;;;;6126558;23;20208;-90
2022/07/29 01:55:04;;;;;;;0.77;0.70;;;15.40;99.90;;;;;;6126294;23;20288;-90
2022/07/29 01:57:31;;;;;;;1.10;1.00;;;15.40;99.90;;;;;;6126506;23;20581;-90
2022/07/29 02:00:00;;;;;;;1.57;1.10;;;15.50;99.90;;;;;;6103323;23;20164;-90
2022/07/29 02:02:27;;;;;;;1.00;0.90;;;15.50;99.90;;;;;;6078615;23;20290;-90
2022/07/29 02:04:54;;;;;;;1.07;0.93;;;15.50;99.90;;;;;;6102717;23;20204;-90
2022/07/29 02:07:22;;;;;;;0.83;0.77;;;15.50;99.90;;;;;;6102241;23;20642;-89
2022/07/29 02:09:50;;;;;;;3.80;1.20;;;15.50;99.90;;;;;;6126777;23;20804;-90
2022/07/29 02:12:18;;;;;;;3.80;1.47;;;15.50;99.90;;;;;;6102244;23;20164;-90
2022/07/29 02:14:48;;;;;;;1.27;1.17;;;15.50;99.90;;;;;;6127445;23;20582;-90
2022/07/29 02:17:22;;;;;;;1.67;1.00;;;15.50;99.90;;;;;;6126207;23;20200;-89
2022/07/29 02:19:49;;;;;;;7.07;1.20;;;15.50;99.90;;;;;;6127821;23;20192;-89
2022/07/29 02:22:18;;;;;;;2.90;1.70;;;15.40;99.90;;;;;;6101915;23;20251;-89
2022/07/29 02:24:44;;;;;;;1.80;1.07;;;15.40;99.90;;;;;;6126608;23;20200;-90
2022/07/29 02:27:11;;;;;;;2.00;1.30;;;15.50;99.90;;;;;;6126808;23;20164;-87
2022/07/29 02:29:39;;;;;;;2.03;1.47;;;15.50;99.90;;;;;;6126859;23;20157;-89
2022/07/29 02:32:07;;;;;;;1.47;1.37;;;15.50;99.90;;;;;;6102552;23;20204;-88
2022/07/29 02:34:35;;;;;;;1.87;1.63;;;15.40;99.90;;;;;;6126502;23;20207;-88
2022/07/29 02:37:02;;;;;;;1.30;1.20;;;15.40;99.90;;;;;;6102581;23;20219;-87
2022/07/29 02:39:29;;;;;;;2.60;1.17;;;15.40;99.90;;;;;;6126434;23;20565;-88
2022/07/29 02:42:01;;;;;;;2.33;1.47;;;15.40;99.90;;;;;;6100051;23;20163;-87
2022/07/29 02:44:28;;;;;;;1.37;1.17;;;15.40;99.90;;;;;;6073288;23;20215;-88
2022/07/29 02:47:12;;;;;;;1.90;1.13;;;15.40;99.90;;;;;;6073206;23;20533;-89
2022/07/29 02:50:04;;;;;;;2.37;1.43;;;15.40;99.90;;;;;;6098121;23;20650;-87
2022/07/29 02:52:48;;;;;;;2.17;1.30;;;15.40;99.90;;;;;;6072923;23;20227;-88
2022/07/29 02:55:22;;;;;;;1.50;1.40;;;15.50;99.90;;;;;;6073003;23;20303;-87
2022/07/29 02:57:57;;;;;;;1.30;1.10;;;15.50;99.90;;;;;;6073115;23;20227;-87
2022/07/29 03:00:29;;;;;;;1.50;1.23;;;15.50;99.90;;;;;;6072634;23;20152;-88
2022/07/29 03:02:58;;;;;;;1.27;1.10;;;15.50;99.90;;;;;;6073833;23;20593;-87
2022/07/29 03:05:25;;;;;;;3.37;1.20;;;15.50;99.90;;;;;;6097865;23;20197;-87
2022/07/29 03:08:00;;;;;;;3.50;1.30;;;15.50;99.90;;;;;;6072692;23;20204;-87
2022/07/29 03:10:27;;;;;;;1.10;1.00;;;15.50;99.90;;;;;;6072564;23;20536;-88
2022/07/29 03:12:56;;;;;;;0.90;0.90;;;15.50;99.90;;;;;;6072887;23;20275;-88
2022/07/29 03:15:22;;;;;;;3.93;1.30;;;15.50;99.90;;;;;;6098102;23;20591;-88
2022/07/29 03:17:49;;;;;;;5.13;1.30;;;15.50;99.90;;;;;;6049706;23;20161;-88
2022/07/29 03:20:15;;;;;;;3.33;1.40;;;15.50;99.90;;;;;;6048869;23;20665;-88
2022/07/29 03:22:43;;;;;;;1.67;1.57;;;15.50;99.90;;;;;;6072701;23;20331;-87
2022/07/29 03:25:16;;;;;;;0.70;0.70;;;15.50;99.90;;;;;;6025693;23;20227;-88
2022/07/29 03:27:42;;;;;;;0.80;0.80;;;15.60;99.90;;;;;;6073094;23;20196;-90
2022/07/29 03:30:09;;;;;;;3.80;1.10;;;15.60;99.90;;;;;;6048762;23;20244;-90
2022/07/29 03:32:35;;;;;;;1.40;1.10;;;15.60;99.90;;;;;;6073056;23;20161;-90
2022/07/29 03:35:01;;;;;;;2.13;1.00;;;15.60;99.90;;;;;;6048864;23;20193;-90
2022/07/29 03:37:27;;;;;;;2.63;1.43;;;15.60;99.90;;;;;;6072268;23;20206;-91
2022/07/29 03:39:55;;;;;;;4.00;1.37;;;15.70;99.90;;;;;;6048882;23;20207;-91
2022/07/29 03:42:32;;;;;;;1.77;1.23;;;15.80;99.90;;;;;;6058458;23;20196;-90
2022/07/29 03:45:05;;;;;;;1.33;1.00;;;15.70;99.90;;;;;;6126646;23;20167;-91
2022/07/29 03:47:34;;;;;;;5.50;1.30;;;15.80;99.90;;;;;;6126155;23;20176;-90
2022/07/29 03:50:04;;;;;;;1.93;1.23;;;15.80;99.90;;;;;;6125780;23;20271;-90
2022/07/29 03:52:30;;;;;;;3.67;1.10;;;15.80;99.90;;;;;;6125503;23;20196;-90
2022/07/29 03:54:56;;;;;;;1.93;0.93;;;15.80;99.90;;;;;;6101539;23;20198;-91
2022/07/29 03:57:27;;;;;;;1.90;0.90;;;15.80;99.90;;;;;;6077582;23;20216;-89
2022/07/29 03:59:54;;;;;;;0.70;0.63;;;15.80;99.90;;;;;;6126286;23;20144;-91
2022/07/29 04:02:20;;;;;;;2.60;1.03;;;15.80;99.90;;;;;;6101540;23;20203;-90
2022/07/29 04:04:46;;;;;;;0.87;0.87;;;15.80;99.90;;;;;;6077004;23;20212;-91
2022/07/29 04:07:13;;;;;;;1.00;0.90;;;15.80;99.90;;;;;;6077553;23;20196;-91
2022/07/29 04:09:39;;;;;;;1.60;0.97;;;15.80;99.90;;;;;;6077787;23;20195;-90
2022/07/29 04:12:05;;;;;;;2.60;1.00;;;15.80;99.90;;;;;;6101279;23;20602;-91
2022/07/29 04:14:32;;;;;;;1.20;0.90;;;15.80;99.90;;;;;;6101553;23;20167;-89
2022/07/29 04:16:59;;;;;;;1.17;1.07;;;15.80;99.90;;;;;;6125651;23;20207;-90
2022/07/29 04:19:25;;;;;;;1.60;1.20;;;15.90;99.90;;;;;;6125470;23;20283;-88
2022/07/29 04:21:51;;;;;;;3.07;1.10;;;15.90;99.90;;;;;;6101255;23;20223;-88
2022/07/29 04:24:17;;;;;;;0.70;0.67;;;15.90;99.90;;;;;;6101506;23;20160;-89
2022/07/29 04:26:43;;;;;;;2.67;1.23;;;15.90;99.90;;;;;;6102057;23;20183;-88
2022/07/29 04:29:08;;;;;;;1.57;0.90;;;15.90;99.90;;;;;;6101372;23;20209;-88
2022/07/29 04:31:34;;;;;;;0.70;0.70;;;15.90;99.90;;;;;;6076979;23;20532;-88
2022/07/29 04:34:00;;;;;;;2.70;0.83;;;15.90;99.90;;;;;;6101306;23;20202;-88
2022/07/29 04:36:26;;;;;;;1.17;0.80;;;15.90;99.90;;;;;;6125179;23;20291;-87
2022/07/29 04:38:51;;;;;;;3.60;1.20;;;15.90;99.90;;;;;;6077703;23;20191;-88
2022/07/29 04:41:17;;;;;;;0.70;0.60;;;15.90;99.90;;;;;;6077085;23;20207;-88
2022/07/29 04:43:43;;;;;;;1.13;1.03;;;16.00;99.90;;;;;;6124941;23;20298;-88
2022/07/29 04:46:09;;;;;;;2.90;1.20;;;16.00;99.90;;;;;;6077069;23;20227;-88
2022/07/29 04:48:35;;;;;;;1.93;1.10;;;16.10;99.90;;;;;;6100605;23;20200;-88
2022/07/29 04:51:00;;;;;;;2.30;1.10;;;16.10;99.90;;;;;;6077861;23;20243;-87
2022/07/29 04:53:26;;;;;;;1.23;1.13;;;16.10;99.90;;;;;;6100267;23;20195;-87
2022/07/29 04:55:52;;;;;;;1.43;0.73;;;16.10;99.90;;;;;;6100794;23;20278;-88
2022/07/29 04:58:18;;;;;;;2.47;1.10;;;16.10;99.90;;;;;;6125089;23;20204;-88
2022/07/29 05:00:43;;;;;;;1.33;1.03;;;16.20;99.90;;;;;;6100711;23;20279;-88
2022/07/29 05:03:09;;;;;;;0.70;0.67;;;16.10;99.90;;;;;;6076795;23;20164;-88
2022/07/29 05:05:35;;;;;;;1.87;1.40;;;16.20;99.90;;;;;;6077363;23;20167;-87
2022/07/29 05:08:01;;;;;;;2.33;1.00;;;16.20;99.90;;;;;;6076866;23;20207;-88
2022/07/29 05:10:27;;;;;;;5.80;0.90;;;16.20;99.90;;;;;;6125211;23;20219;-87
2022/07/29 05:12:52;;;;;;;1.27;1.17;;;16.20;99.90;;;;;;6076822;23;20192;-88
2022/07/29 05:15:18;;;;;;;1.10;1.00;;;16.30;99.90;;;;;;6100512;23;20163;-88
2022/07/29 05:17:44;;;;;;;2.47;0.87;;;16.30;99.90;;;;;;6077598;23;20199;-89
2022/07/29 05:20:10;;;;;;;1.03;0.83;;;16.30;99.90;;;;;;6125120;23;20650;-88
2022/07/29 05:22:36;;;;;;;0.97;0.60;;;16.30;99.90;;;;;;6100646;23;20198;-89
2022/07/29 05:25:03;;;;;;;0.93;0.77;;;16.40;99.90;;;;;;6100579;23;20526;-88
2022/07/29 05:27:31;;;;;;;1.40;1.30;;;16.40;99.90;;;;;;6124783;23;20266;-87
2022/07/29 05:29:57;;;;;;;1.23;1.07;;;16.40;99.90;;;;;;6101793;23;20175;-89
2022/07/29 05:32:22;;;;;;;1.33;0.90;;;16.50;99.90;;;;;;6077067;23;20270;-91
2022/07/29 05:34:48;;;;;;;1.70;1.13;;;16.50;99.90;;;;;;6077097;23;20303;-88
2022/07/29 05:37:14;;;;;;;3.60;0.97;;;16.50;99.90;;;;;;6077087;23;20719;-88
2022/07/29 05:39:40;;;;;;;7.10;1.03;;;16.60;99.90;;;;;;6076652;23;20210;-89
2022/07/29 05:42:09;;;;;;;0.80;0.70;;;16.60;99.90;;;;;;6120645;23;20200;-86
2022/07/29 05:44:39;;;;;;;1.70;0.93;;;16.70;99.90;;;;;;6072569;23;20495;-88
2022/07/29 05:47:06;;;;;;;0.93;0.87;;;16.80;99.90;;;;;;6024187;23;20610;-88
2022/07/29 05:49:32;;;;;;;1.00;0.90;;;16.80;99.90;;;;;;6047839;23;20262;-88
2022/07/29 05:51:58;;;;;;;2.17;1.53;;;16.80;99.90;;;;;;6071727;23;20706;-87
2022/07/29 05:54:24;;;;;;;2.00;1.30;;;16.90;99.90;;;;;;6047994;23;20271;-89
2022/07/29 05:56:49;;;;;;;2.73;1.07;;;16.90;99.90;;;;;;6072051;23;20324;-90
2022/07/29 05:59:15;;;;;;;3.07;1.10;;;17.00;99.90;;;;;;6047994;23;20618;-90
2022/07/29 06:01:41;;;;;;;0.67;0.67;;;17.10;99.90;;;;;;6024078;23;20284;-91
2022/07/29 06:04:07;;;;;;;1.07;0.97;;;17.10;99.90;;;;;;6024419;23;20505;-89
2022/07/29 06:06:33;;;;;;;0.80;0.80;;;17.40;99.90;;;;;;6024216;23;20204;-89
2022/07/29 06:09:00;;;;;;;2.20;1.00;;;17.60;99.90;;;;;;6072608;23;20165;-89
2022/07/29 06:11:26;;;;;;;5.60;1.90;;;17.90;99.90;;;;;;6047760;23;20718;-88
2022/07/29 06:13:52;;;;;;;1.83;1.00;;;18.00;99.90;;;;;;6048065;23;20272;-89
2022/07/29 06:16:19;;;;;;;0.80;0.70;;;17.90;99.90;;;;;;6047759;23;20228;-89
2022/07/29 06:18:44;;;;;;;1.93;1.03;;;17.80;99.90;;;;;;6071377;23;20244;-89
2022/07/29 06:21:11;;;;;;;1.70;0.97;;;17.80;99.90;;;;;;6071797;23;20214;-89
2022/07/29 06:23:41;;;;;;;2.63;1.10;;;17.80;99.90;;;;;;6071682;23;20240;-89
2022/07/29 06:26:06;;;;;;;7.73;1.00;;;17.90;99.90;;;;;;6047504;23;20196;-89
2022/07/29 06:28:32;;;;;;;2.13;0.70;;;17.90;99.90;;;;;;6049549;23;20579;-90
2022/07/29 06:30:59;;;;;;;1.20;0.93;;;18.00;99.90;;;;;;6049368;23;20196;-91
2022/07/29 06:33:24;;;;;;;3.13;0.90;;;18.30;99.90;;;;;;6049667;23;20262;-92
2022/07/29 06:35:50;;;;;;;1.93;1.10;;;18.70;99.90;;;;;;6026470;23;20217;-89
2022/07/29 06:38:16;;;;;;;3.37;1.60;;;18.90;99.90;;;;;;6073218;23;20232;-91
2022/07/29 06:41:00;;;;;;;2.10;1.00;;;19.20;99.90;;;;;;6049226;23;20251;-89
2022/07/29 06:43:51;;;;;;;2.47;0.97;;;19.60;99.90;;;;;;6110009;23;20545;-91
2022/07/29 06:46:19;;;;;;;1.37;0.90;;;20.10;99.90;;;;;;6128225;23;20212;-91
2022/07/29 06:48:45;;;;;;;1.37;0.97;;;21.00;99.90;;;;;;6103168;23;20258;-92
2022/07/29 06:51:11;;;;;;;1.73;1.10;;;21.30;99.90;;;;;;6128239;23;20163;-91
2022/07/29 06:53:38;;;;;;;1.03;0.97;;;21.80;99.90;;;;;;6127409;23;20167;-92
2022/07/29 06:56:06;;;;;;;2.77;0.90;;;21.90;99.90;;;;;;6080177;23;20200;-91
2022/07/29 06:58:31;;;;;;;2.90;0.90;;;21.90;99.90;;;;;;6103369;23;20199;-93
2022/07/29 07:01:00;;;;;;;1.60;1.20;;;21.50;99.90;;;;;;6104584;23;20192;-91
2022/07/29 07:03:26;;;;;;;1.03;0.80;;;21.00;99.90;;;;;;6104692;23;20188;-90
2022/07/29 07:05:53;;;;;;;1.00;0.90;;;20.60;99.90;;;;;;6130797;23;20492;-90
2022/07/29 07:08:20;;;;;;;4.27;1.00;;;21.20;99.90;;;;;;6127611;23;20200;-91
2022/07/29 07:10:46;;;;;;;1.43;1.00;;;21.40;99.90;;;;;;6103644;23;20196;-91
2022/07/29 07:13:12;;;;;;;1.80;1.20;;;21.00;99.90;;;;;;6079368;23;20206;-91
2022/07/29 07:15:38;;;;;;;0.80;0.80;;;20.80;99.90;;;;;;6102866;23;20220;-92
2022/07/29 07:18:08;;;;;;;1.23;0.90;;;20.60;99.90;;;;;;6104368;23;20184;-90
2022/07/29 07:20:35;;;;;;;1.73;1.00;;;20.50;99.90;;;;;;6128346;23;20658;-90
2022/07/29 07:23:00;;;;;;;4.87;0.97;;;20.70;99.90;;;;;;6126641;23;20199;-91
2022/07/29 07:25:26;;;;;;;2.80;1.37;;;20.40;99.90;;;;;;6102526;23;20203;-91
2022/07/29 07:27:52;;;;;;;1.40;1.00;;;20.50;99.90;;;;;;6102581;23;20196;-91
2022/07/29 07:30:18;;;;;;;3.23;1.13;;;20.60;99.90;;;;;;6103283;23;20171;-90
2022/07/29 07:32:44;;;;;;;0.80;0.80;;;20.50;99.90;;;;;;6128921;23;20581;-91
2022/07/29 07:35:10;;;;;;;1.10;1.00;;;20.60;99.90;;;;;;6078689;23;20195;-91
2022/07/29 07:37:37;;;;;;;3.93;1.00;;;20.80;99.90;;;;;;6102107;23;20645;-91
2022/07/29 07:40:03;;;;;;;3.60;1.47;;;20.90;99.90;;;;;;6126864;23;20257;-91
2022/07/29 07:42:29;;;;;;;1.40;1.10;;;21.00;99.90;;;;;;6126283;23;20294;-91
2022/07/29 07:44:55;;;;;;;3.20;1.03;;;21.20;99.90;;;;;;6127091;23;20192;-90
2022/07/29 07:47:20;;;;;;;1.97;1.47;;;21.30;99.90;;;;;;6079236;23;20627;-91
2022/07/29 07:49:47;;;;;;;1.17;0.77;;;21.40;99.90;;;;;;6101309;23;20275;-91
2022/07/29 07:52:14;;;;;;;4.17;1.27;;;21.50;99.90;;;;;;6102820;23;20523;-90
2022/07/29 07:54:40;;;;;;;2.10;1.20;;;21.20;99.90;;;;;;6127477;23;20633;-91
2022/07/29 07:57:06;;;;;;;3.73;1.23;;;20.70;99.90;;;;;;6079780;23;20184;-90
2022/07/29 07:59:32;;;;;;;3.87;1.27;;;20.70;99.90;;;;;;6080165;23;20156;-92
2022/07/29 08:01:57;;;;;;;1.07;0.87;;;20.80;99.90;;;;;;6079562;23;20208;-91
2022/07/29 08:04:24;;;;;;;0.93;0.80;;;20.80;99.90;;;;;;6081176;23;20206;-90
2022/07/29 08:06:50;;;;;;;1.03;1.00;;;20.30;99.90;;;;;;6081219;23;20203;-91
2022/07/29 08:09:16;;;;;;;0.70;0.70;;;20.30;99.90;;;;;;6103128;23;20160;-92
2022/07/29 08:11:42;;;;;;;11.63;1.63;;;19.80;99.90;;;;;;6106225;23;20156;-91
2022/07/29 08:14:07;;;;;;;4.00;1.17;;;19.80;99.90;;;;;;6102941;23;20246;-91
2022/07/29 08:16:33;;;;;;;3.53;1.40;;;19.50;99.90;;;;;;6102980;23;20200;-92
2022/07/29 08:18:59;;;;;;;2.23;1.10;;;19.30;99.90;;;;;;6077613;23;20207;-90
2022/07/29 08:21:25;;;;;;;3.00;1.20;;;19.40;99.90;;;;;;6078112;23;20239;-91
2022/07/29 08:24:42;;;;;;;2.80;1.30;;;19.30;99.90;;;;;;6078248;23;20153;-90
2022/07/29 08:26:43;;;;;;;1.77;1.20;;;19.10;99.90;;;;;;6127069;23;20334;-90
2022/07/29 08:29:10;;;;;;;2.20;1.10;;;19.00;99.90;;;;;;6101129;23;20283;-91
2022/07/29 08:31:36;;;;;;;0.80;0.80;;;19.00;99.90;;;;;;6100939;23;20215;-92
2022/07/29 08:34:03;;;;;;;2.93;0.90;;;19.20;99.90;;;;;;6125797;23;20196;-91
2022/07/29 08:36:29;;;;;;;4.13;1.10;;;19.40;99.90;;;;;;6101698;23;20691;-93
2022/07/29 08:38:55;;;;;;;1.57;1.17;;;19.60;99.90;;;;;;6101800;23;20192;-92
2022/07/29 08:41:21;;;;;;;2.43;1.17;;;19.50;99.90;;;;;;6125589;23;20200;-92
2022/07/29 08:43:48;;;;;;;2.73;1.50;;;19.60;99.90;;;;;;6101062;23;20545;-93
2022/07/29 08:46:15;;;;;;;1.20;1.10;;;19.70;99.90;;;;;;6127001;23;20657;-91
2022/07/29 08:48:41;;;;;;;2.07;1.07;;;19.80;99.90;;;;;;6101047;23;20629;-92
2022/07/29 08:51:08;;;;;;;1.93;1.33;;;20.00;99.90;;;;;;6101139;23;20526;-92
2022/07/29 08:53:34;;;;;;;0.80;0.80;;;20.50;99.90;;;;;;6127218;23;20239;-91
2022/07/29 08:56:01;;;;;;;1.70;1.40;;;20.90;99.90;;;;;;6100917;23;20553;-91
2022/07/29 08:58:32;;;;;;;1.57;0.97;;;21.10;99.90;;;;;;6100452;23;20234;-92
2022/07/29 09:01:00;;;;;;;2.40;1.30;;;21.20;99.90;;;;;;6124568;23;20641;-91
2022/07/29 09:03:31;;;;;;;2.40;1.20;;;21.30;99.90;;;;;;6124680;23;20192;-90
2022/07/29 09:05:58;;;;;;;3.23;1.40;;;21.30;99.90;;;;;;6100986;23;20566;-92
2022/07/29 09:08:25;;;;;;;7.70;1.50;;;21.60;99.90;;;;;;6100229;23;20203;-90
2022/07/29 09:10:51;;;;;;;7.33;1.50;;;21.90;99.90;;;;;;6100014;23;20644;-91
2022/07/29 09:13:17;;;;;;;7.77;1.37;;;22.00;99.90;;;;;;6100278;23;20613;-90
2022/07/29 09:15:44;;;;;;;1.73;1.33;;;21.70;99.90;;;;;;6076376;23;20195;-89
2022/07/29 09:18:10;;;;;;;2.20;1.07;;;21.60;99.90;;;;;;6100286;23;20239;-89
2022/07/29 09:23:20;;;;;;;1.10;1.00;;;21.40;99.90;;;;;;6126100;23;20196;-90
2022/07/29 09:25:46;;;;;;;2.93;1.10;;;21.20;99.90;;;;;;6075892;23;20263;-90
2022/07/29 09:28:16;;;;;;;1.53;1.20;;;21.10;99.90;;;;;;6124528;23;20196;-89
2022/07/29 09:30:56;;;;;;;3.50;1.30;;;20.90;99.90;;;;;;6099710;23;20200;-90
2022/07/29 09:33:23;;;;;;;1.23;1.03;;;21.00;99.90;;;;;;6100439;23;20490;-89
2022/07/29 09:36:03;;;;;;;7.40;1.47;;;20.80;99.90;;;;;;6100733;23;20202;-89
2022/07/29 09:38:29;;;;;;;3.00;0.97;;;20.70;99.90;;;;;;6125849;23;20172;-90
2022/07/29 09:41:03;;;;;;;1.33;0.93;;;20.50;99.90;;;;;;6076167;23;20283;-90
2022/07/29 09:43:29;;;;;;;5.80;1.50;;;20.40;99.90;;;;;;6100138;23;20212;-90
2022/07/29 09:45:54;;;;;;;4.53;1.07;;;20.70;99.90;;;;;;6099829;23;20207;-89
2022/07/29 09:48:24;;;;;;;2.63;1.17;;;20.80;99.90;;;;;;6100505;23;20160;-89
2022/07/29 09:50:52;;;;;;;2.47;1.10;;;20.80;99.90;;;;;;6125901;23;20192;-89
2022/07/29 09:53:35;;;;;;;1.37;1.07;;;20.50;99.90;;;;;;6124915;23;20199;-90
2022/07/29 09:56:01;;;;;;;3.70;1.30;;;20.40;99.90;;;;;;6125145;23;20227;-89
2022/07/29 09:58:26;;;;;;;2.47;1.33;;;20.30;99.90;;;;;;6125020;23;20195;-88
2022/07/29 10:00:54;;;;;;;2.60;1.90;;;20.30;99.90;;;;;;6100521;23;20257;-89
2022/07/29 10:03:21;;;;;;;1.23;1.13;;;20.30;99.90;;;;;;6126806;23;20156;-89
2022/07/29 10:06:06;;;;;;;2.50;1.40;;;20.20;99.90;;;;;;6079707;23;20270;-90
2022/07/29 10:08:32;;;;;;;1.20;1.10;;;20.00;99.90;;;;;;6127237;23;20307;-92
2022/07/29 10:11:14;;;;;;;1.20;1.10;;;20.00;99.90;;;;;;6126633;23;20255;-90
2022/07/29 10:13:41;;;;;;;2.30;1.03;;;20.00;99.90;;;;;;6126427;23;20206;-91
2022/07/29 10:16:08;;;;;;;1.37;1.00;;;20.00;99.90;;;;;;6102259;23;20196;-90
2022/07/29 10:18:35;;;;;;;2.33;1.50;;;20.00;99.90;;;;;;6102158;23;20188;-90
2022/07/29 10:21:01;;;;;;;2.20;1.27;;;19.90;99.90;;;;;;6079229;23;20164;-90
2022/07/29 10:23:29;;;;;;;3.03;1.00;;;19.80;99.90;;;;;;6102427;23;20547;-90
2022/07/29 10:25:55;;;;;;;3.50;1.60;;;19.60;99.90;;;;;;6127050;23;20513;-90
2022/07/29 10:28:20;;;;;;;2.33;1.57;;;19.70;99.90;;;;;;6102303;23;20200;-90
2022/07/29 10:30:48;;;;;;;2.27;1.50;;;19.50;99.90;;;;;;6126652;23;20211;-90
2022/07/29 10:33:17;;;;;;;3.80;1.70;;;19.60;99.90;;;;;;6102927;23;20495;-90
2022/07/29 10:35:52;;;;;;;2.63;1.70;;;19.70;99.90;;;;;;6127237;23;20164;-89
2022/07/29 10:38:23;;;;;;;4.27;2.60;;;19.80;99.90;;;;;;6126338;23;20665;-90
2022/07/29 10:41:26;;;;;;;2.90;1.77;;;19.60;99.90;;;;;;6126351;23;20502;-90
2022/07/29 10:43:56;;;;;;;4.93;1.63;;;19.40;99.90;;;;;;6125894;23;20219;-89
2022/07/29 10:46:23;;;;;;;2.17;1.50;;;19.30;99.90;;;;;;6126353;23;20201;-89
2022/07/29 10:49:11;;;;;;;7.23;1.50;;;19.20;99.90;;;;;;6102062;23;20254;-89
2022/07/29 10:52:09;;;;;;;1.80;1.40;;;19.20;99.90;;;;;;6128196;23;20200;-90
2022/07/29 10:54:35;;;;;;;3.33;1.47;;;19.20;99.90;;;;;;6126890;23;20270;-90
2022/07/29 10:57:16;;;;;;;2.13;1.60;;;19.10;99.90;;;;;;6127058;23;20183;-89
2022/07/29 10:59:47;;;;;;;3.47;1.63;;;19.10;99.90;;;;;;6126928;23;20191;-88
2022/07/29 11:02:31;;;;;;;4.10;1.43;;;19.10;99.90;;;;;;6101983;23;20252;-89
2022/07/29 11:04:57;;;;;;;2.43;2.00;;;19.30;99.90;;;;;;6125985;23;20203;-89
2022/07/29 11:07:23;;;;;;;1.83;1.30;;;19.30;99.90;;;;;;6126380;23;20649;-88
2022/07/29 11:10:16;;;;;;;3.43;1.73;;;19.40;99.90;;;;;;6101683;23;20196;-89
2022/07/29 11:12:46;;;;;;;2.40;1.77;;;19.50;99.90;;;;;;6126243;23;20869;-89
2022/07/29 11:15:18;;;;;;;1.80;1.50;;;19.50;99.90;;;;;;6126468;23;20255;-88
2022/07/29 11:17:53;;;;;;;7.33;2.43;;;19.50;99.90;;;;;;6102903;23;20187;-88
2022/07/29 11:20:42;;;;;;;5.07;2.07;;;19.60;99.90;;;;;;6126250;23;20580;-89
2022/07/29 11:23:26;;;;;;;1.67;1.57;;;19.70;99.90;;;;;;6126120;23;20629;-90
2022/07/29 11:26:14;;;;;;;4.00;2.27;;;19.90;99.90;;;;;;6125943;23;20671;-88
2022/07/29 11:28:51;;;;;;;2.30;1.80;;;20.10;99.90;;;;;;6125963;23;20329;-89
2022/07/29 11:31:41;;;;;;;2.87;2.17;;;20.20;99.90;;;;;;6126175;23;20200;-88
2022/07/29 11:34:25;;;;;;;1.97;1.77;;;20.30;99.90;;;;;;6125441;23;20196;-88
2022/07/29 11:37:10;;;;;;;3.60;2.27;;;20.30;99.90;;;;;;6126110;23;20286;-89
2022/07/29 11:39:44;;;;;;;3.33;1.77;;;20.20;99.90;;;;;;6126138;23;20507;-88
2022/07/29 11:42:25;;;;;;;5.07;1.57;;;20.20;99.90;;;;;;6125463;23;20282;-89
2022/07/29 11:45:17;;;;;;;3.97;1.80;;;20.00;99.90;;;;;;6128308;23;20156;-90
2022/07/29 11:47:50;;;;;;;3.33;2.20;;;20.00;99.90;;;;;;6126518;23;20260;-89
2022/07/29 11:50:26;;;;;;;3.20;2.27;;;19.90;99.90;;;;;;6125784;23;20200;-90
2022/07/29 11:52:52;;;;;;;1.83;1.37;;;19.90;99.90;;;;;;6126267;23;20195;-89
2022/07/29 11:55:20;;;;;;;3.57;2.03;;;20.00;99.90;;;;;;6078161;23;20196;-90
2022/07/29 11:57:56;;;;;;;2.90;1.90;;;20.00;99.90;;;;;;6102150;23;20204;-89
2022/07/29 12:00:29;;;;;;;5.90;2.03;;;20.30;99.90;;;;;;6127368;23;20640;-90
2022/07/29 12:02:58;;;;;;;3.27;1.60;;;20.10;99.90;;;;;;6128257;23;20164;-89
2022/07/29 12:05:36;;;;;;;2.67;1.90;;;20.10;99.90;;;;;;6126547;23;20592;-90
2022/07/29 12:08:22;;;;;;;2.37;2.10;;;20.10;99.90;;;;;;6126863;23;20270;-91
2022/07/29 12:10:50;;;;;;;9.23;2.13;;;20.10;99.90;;;;;;6102405;23;20199;-90
2022/07/29 12:13:18;;;;;;;5.73;2.13;;;20.00;99.90;;;;;;6102167;23;20262;-91
2022/07/29 12:15:53;;;;;;;2.73;1.60;;;20.00;99.90;;;;;;6126392;23;20573;-89
2022/07/29 12:18:20;;;;;;;3.63;1.60;;;20.10;99.90;;;;;;6102229;23;20148;-90
2022/07/29 12:20:47;;;;;;;5.40;2.00;;;20.10;99.90;;;;;;6128033;23;20292;-90
2022/07/29 12:23:14;;;;;;;4.07;1.97;;;20.20;99.90;;;;;;6101426;23;20521;-90
2022/07/29 12:25:43;;;;;;;5.07;1.80;;;20.10;99.90;;;;;;6101166;23;20199;-90
2022/07/29 12:28:16;;;;;;;8.57;1.90;;;20.10;99.90;;;;;;6126129;23;20200;-90
2022/07/29 12:30:45;;;;;;;4.63;1.70;;;20.20;99.90;;;;;;6126184;23;20192;-91
2022/07/29 12:33:19;;;;;;;5.20;1.83;;;20.30;99.90;;;;;;6127011;23;20184;-89
2022/07/29 12:35:48;;;;;;;3.30;1.73;;;20.40;99.90;;;;;;6126195;23;20163;-89
2022/07/29 12:38:15;;;;;;;4.63;1.60;;;20.40;99.90;;;;;;6125588;23;20198;-89
2022/07/29 12:40:40;;;;;;;4.50;1.87;;;20.20;99.90;;;;;;6077463;23;20766;-90
2022/07/29 12:43:11;;;;;;;3.33;1.67;;;20.20;99.90;;;;;;6125096;23;20243;-90
2022/07/29 12:45:38;;;;;;;4.53;2.23;;;20.10;99.90;;;;;;6125245;23;20201;-90
2022/07/29 12:48:06;;;;;;;3.87;2.13;;;20.20;99.90;;;;;;6126666;23;20156;-89
2022/07/29 12:50:32;;;;;;;5.73;1.87;;;20.20;99.90;;;;;;6078645;23;20243;-90
2022/07/29 12:53:12;;;;;;;7.03;2.00;;;20.20;99.90;;;;;;6077380;23;20223;-90
2022/07/29 12:55:42;;;;;;;2.90;1.90;;;20.40;99.90;;;;;;6125748;23;20195;-91
2022/07/29 12:58:08;;;;;;;5.07;1.90;;;20.40;99.90;;;;;;6101926;23;20196;-92
2022/07/29 13:00:33;;;;;;;6.90;2.53;;;20.40;99.90;;;;;;6077479;23;20271;-91
2022/07/29 13:03:00;;;;;;;3.83;1.77;;;20.30;99.90;;;;;;6076921;23;20605;-87
2022/07/29 13:05:41;;;;;;;3.00;1.77;;;20.50;99.90;;;;;;6125164;23;20572;-89
2022/07/29 13:08:19;;;;;;;2.13;1.60;;;20.50;99.90;;;;;;6125199;23;20540;-89